Página principal
METAR-TAF:

METAR-TAF

Aeroportos :

Aeroporto Internacional de Tóquio

Tóquio-Haneda, Japão

latitude: 35-33N, longitude: 139-47E, altura: 5 m

Observação actual do tempo

O boletim foi feito há 33 minutos, às 15:00 UTC
Vento 14 kt de nor-noroeste
Temperatura 6°C
Humidade 39%
Pressão 1019 hPa
Visibilidade 10 km ou mais
sem nuvens abaixo de 1500 metros e sem cumulonimbus

METAR: RJTT 171500Z 34014KT CAVOK 06/M07 Q1019 NOSIG RMK A3011

Hora: 00:33 (15:33 UTC)

Previsão

O boletim foi feito há 4 horas e 28 minutos, às 11:05 UTC
Previsão válida de 17 às 12 UTC a 18 às 18 UTC
Vento 16 kt de nor-noroeste
Visibilidade 10 km ou mais
Poucas nuvensa uma altura de 3000 ft
Tornando-se
de 17 às 20 UTC a 17 às 22 UTC
Vento 6 kt de nor-noroeste
Tornando-se
de 18 às 03 UTC a 18 às 06 UTC
Vento 10 kt de sul
Tornando-se
de 18 às 12 UTC a 18 às 15 UTC
Vento 5 kt de oes-noroeste

TAF: RJTT 171105Z 1712/1818 34016KT 9999 FEW030 BECMG 1720/1722 34006KT BECMG 1803/1806 18010KT BECMG 1812/1815 30005KT

Observações e previsões do tempo de mais de 4000 aeroportos (mensagens METAR e TAF).

As estações disponíveis são os pontos amarelos e vermelhos sobre o mapa.

Mova o rato sobre o mapa para ver o nome da estação.

Depois clique no ponto para visualizar as observações e previsões meteorológicas.

Para alterar o mapa : clique nos botões verdes com uma cruz preta para aumentar o zoom; no botão verde com uma pitada de zoom; ou nas setas verdes para mapas adjacentes.


METAR-TAF: